Rozetta, Illinois
Current Conditions -  °F | °C
As of 8:15 AM on Sunday 21 Dec 2014 (Local Time) from KGBG Reporting Station
Haze Haze  
Wind Chill: 30°   Ceiling: 2700
Heat Index: 35°   Visibility: 4mi
Dew Point: 33°   Wind: 6mph
Humidity: 94%   Direction: 160°SSE
Pressure: 30.14"   Gusts: NA
Location:  40.8511°N, 90.7293°W
Report Text: KGBG 211415Z AUTO 16005KT 4SM BR OVC027 02/01 A3014 RMK AO2 T00160007
Loading
Personal Weather Stations






























Interactive Weather Map New forecast layout! Learn more

10-Day Weather Forecast

Advertisements
Track Severe Weather on mobile